Time;durP1;ratioP1;P1;durP2;ratioP2;P2;SDS_P1;SDS_P2;PMS_P1;PMS_P2;Temp;Humidity;BMP_temperature;BMP_pressure;BME280_temperature;BME280_humidity;BME280_pressure;Samples;Min_cycle;Max_cycle;Signal;HPM_P1;HPM_P2
2022/06/07 00:02:15;;;;;;;5.37;3.47;;;;;;;25.89;52.17;100817.20;1725993;82;21035;-68
2022/06/07 00:04:43;;;;;;;7.22;3.75;;;;;;;25.74;52.37;100815.69;1736690;82;21034;-68
2022/06/07 00:07:10;;;;;;;6.45;3.67;;;;;;;25.64;52.69;100817.13;1706836;83;21040;-67
2022/06/07 00:09:37;;;;;;;5.65;3.47;;;;;;;25.58;52.62;100810.66;1729601;82;21106;-68
2022/06/07 00:12:07;;;;;;;7.45;3.70;;;;;;;25.33;53.11;100809.73;1710254;83;21115;-67
2022/06/07 00:14:36;;;;;;;6.78;3.30;;;;;;;25.25;53.06;100813.64;1726020;82;21617;-68
2022/06/07 00:17:07;;;;;;;9.95;3.50;;;;;;;25.54;52.60;100811.97;1732797;82;21040;-68
2022/06/07 00:19:35;;;;;;;6.47;3.45;;;;;;;25.53;53.00;100810.33;1705010;82;21032;-68
2022/06/07 00:22:03;;;;;;;4.67;3.50;;;;;;;25.45;52.89;100805.02;1712717;83;21083;-66
2022/06/07 00:24:31;;;;;;;5.72;3.50;;;;;;;25.51;53.28;100807.02;1701877;83;21071;-67
2022/06/07 00:26:59;;;;;;;4.65;3.40;;;;;;;25.45;53.46;100806.84;1703032;83;21084;-68
2022/06/07 00:29:27;;;;;;;6.62;3.67;;;;;;;25.39;53.39;100804.34;1740799;82;21044;-68
2022/06/07 00:31:58;;;;;;;6.97;3.77;;;;;;;25.43;53.33;100808.31;1720336;83;21468;-68
2022/06/07 00:34:26;;;;;;;5.75;3.70;;;;;;;25.47;53.36;100810.14;1719714;82;21082;-68
2022/06/07 00:36:55;;;;;;;4.72;3.60;;;;;;;25.39;53.71;100810.42;1737287;81;21130;-68
2022/06/07 00:39:23;;;;;;;6.87;3.60;;;;;;;25.14;54.17;100819.13;1700384;82;21553;-68
2022/06/07 00:41:50;;;;;;;6.12;3.98;;;;;;;25.14;53.91;100821.77;1710755;83;21071;-67
2022/06/07 00:44:28;;;;;;;5.03;3.70;;;;;;;24.96;54.36;100821.34;1740386;81;21574;-68
2022/06/07 00:47:15;;;;;;;6.40;3.98;;;;;;;25.18;53.83;100815.20;1687327;83;21642;-68
2022/06/07 00:50:05;;;;;;;11.38;4.28;;;;;;;25.27;53.83;100819.58;1740544;81;21055;-69
2022/06/07 00:52:35;;;;;;;5.80;4.05;;;;;;;25.30;53.84;100819.25;1731127;82;21028;-68
2022/06/07 00:55:05;;;;;;;7.87;3.95;;;;;;;25.51;53.29;100818.07;1703992;82;21008;-68
2022/06/07 00:57:37;;;;;;;;;;;;;;;25.13;53.81;100818.31;1707953;83;21095;-67
2022/06/07 01:00:11;;;;;;;9.03;4.60;;;;;;;24.76;54.71;100817.23;1720210;83;20141;-67
2022/06/07 01:02:38;;;;;;;8.23;4.55;;;;;;;24.84;54.49;100824.34;1739007;82;21032;-67
2022/06/07 01:05:07;;;;;;;6.15;4.30;;;;;;;24.78;54.78;100816.59;1729946;81;21063;-67
2022/06/07 01:13:12;;;;;;;6.35;4.87;;;;;;;25.07;54.35;100817.61;1703068;83;21079;-68
2022/06/07 01:15:44;;;;;;;7.42;4.92;;;;;;;25.14;54.13;100819.13;1724540;81;20994;-68
2022/06/07 01:18:13;;;;;;;9.40;5.33;;;;;;;25.11;54.07;100818.95;1714485;83;21098;-68
2022/06/07 01:20:43;;;;;;;10.55;5.30;;;;;;;24.96;54.17;100821.84;1732052;82;21535;-68
2022/06/07 01:23:10;;;;;;;8.38;4.85;;;;;;;24.90;54.49;100829.85;1710856;82;21086;-68
2022/06/07 01:25:40;;;;;;;8.93;5.50;;;;;;;25.01;54.64;100823.50;1663414;84;21043;-68
2022/06/07 01:28:08;;;;;;;8.90;5.20;;;;;;;24.51;55.20;100824.94;1716264;82;21046;-67
2022/06/07 01:30:36;;;;;;;7.35;5.22;;;;;;;24.73;55.11;100824.11;1722273;83;21027;-69
2022/06/07 01:33:03;;;;;;;8.73;5.70;;;;;;;24.84;54.45;100822.56;1710322;81;21147;-68
2022/06/07 01:35:31;;;;;;;11.20;5.92;;;;;;;24.84;54.64;100823.88;1713430;84;21028;-69
2022/06/07 01:37:57;;;;;;;10.82;6.47;;;;;;;24.51;54.84;100827.56;1718654;83;21086;-68
2022/06/07 01:43:12;;;;;;;10.58;5.62;;;;;;;24.36;55.21;100823.76;1692399;84;21059;-68
2022/06/07 01:45:39;;;;;;;10.10;5.87;;;;;;;24.49;55.13;100831.27;1711592;83;21524;-68
2022/06/07 01:48:08;;;;;;;9.73;5.90;;;;;;;24.76;54.44;100831.72;1718318;83;21082;-67
2022/06/07 01:50:35;;;;;;;10.45;5.45;;;;;;;24.92;54.07;100833.63;1706164;81;21052;-68
2022/06/07 01:53:02;;;;;;;10.60;5.70;;;;;;;24.95;54.00;100835.47;1712769;82;21004;-68
2022/06/07 01:55:29;;;;;;;12.35;6.10;;;;;;;25.02;54.06;100835.70;1714840;82;21054;-67
2022/06/07 01:57:58;;;;;;;9.30;6.03;;;;;;;24.89;54.42;100834.77;1722984;83;21518;-68
2022/06/07 02:00:25;;;;;;;8.28;5.62;;;;;;;24.93;54.42;100837.92;1716250;83;21563;-67
2022/06/07 02:02:54;;;;;;;9.53;5.75;;;;;;;24.99;54.43;100841.27;1716023;83;21077;-68
2022/06/07 02:05:21;;;;;;;10.68;5.90;;;;;;;24.93;54.25;100840.06;1681069;81;21139;-68
2022/06/07 02:07:50;;;;;;;9.85;5.90;;;;;;;24.94;54.18;100848.78;1712746;82;21039;-69
2022/06/07 02:10:19;;;;;;;9.00;5.45;;;;;;;24.88;54.11;100841.03;1719821;83;21079;-68
2022/06/07 02:12:46;;;;;;;12.25;5.72;;;;;;;24.57;54.60;100838.80;1715220;83;21046;-68
2022/06/07 02:15:14;;;;;;;9.68;5.72;;;;;;;24.63;54.50;100837.84;1717633;82;21078;-69
2022/06/07 02:17:41;;;;;;;11.48;5.70;;;;;;;24.09;55.68;100847.00;1727950;83;21035;-67
2022/06/07 02:20:10;;;;;;;11.70;5.78;;;;;;;24.23;55.48;100850.91;1719594;83;21485;-68
2022/06/07 02:22:38;;;;;;;9.75;5.30;;;;;;;24.26;55.55;100857.20;1724654;83;21062;-68
2022/06/07 02:25:07;;;;;;;18.27;5.83;;;;;;;24.29;55.42;100853.80;1729272;82;21059;-67
2022/06/07 02:27:34;;;;;;;8.03;5.70;;;;;;;24.10;56.00;100854.72;1677832;83;21511;-68
2022/06/07 02:30:03;;;;;;;9.00;5.45;;;;;;;24.11;55.88;100855.08;1717557;83;21028;-68
2022/06/07 02:32:33;;;;;;;8.23;5.03;;;;;;;24.29;55.54;100846.36;1725407;83;21023;-68
2022/06/07 02:35:22;;;;;;;11.50;5.30;;;;;;;24.51;54.97;100843.82;1711374;81;21044;-68
2022/06/07 02:37:50;;;;;;;9.65;5.87;;;;;;;24.77;54.47;100848.66;1756385;81;21066;-67
2022/06/07 02:40:17;;;;;;;8.40;5.45;;;;;;;24.83;54.36;100849.86;1700849;82;21064;-67
2022/06/07 02:42:43;;;;;;;7.15;5.45;;;;;;;24.86;54.38;100853.52;1701962;83;21088;-68
2022/06/07 02:45:11;;;;;;;8.55;5.90;;;;;;;24.90;54.50;100852.70;1719273;83;21344;-68
2022/06/07 02:47:39;;;;;;;8.85;5.62;;;;;;;24.97;54.55;100851.95;1744185;82;21055;-68
2022/06/07 02:50:10;;;;;;;11.97;5.72;;;;;;;25.05;54.34;100855.13;1707407;83;21092;-68
2022/06/07 02:52:39;;;;;;;10.48;5.67;;;;;;;25.31;53.76;100849.09;1679909;82;21015;-68
2022/06/07 02:55:09;;;;;;;9.80;5.80;;;;;;;25.25;54.09;100856.30;1723486;83;21040;-66
2022/06/07 02:57:37;;;;;;;10.05;5.80;;;;;;;25.21;54.14;100858.41;1728556;81;21486;-68
2022/06/07 03:00:09;;;;;;;10.35;6.12;;;;;;;25.37;53.76;100862.46;1747657;81;21012;-68
2022/06/07 03:02:37;;;;;;;12.28;7.10;;;;;;;25.06;54.65;100862.07;1740079;82;21059;-67
2022/06/07 03:05:06;;;;;;;11.95;6.55;;;;;;;25.16;54.17;100863.27;1727826;82;21052;-69
2022/06/07 03:07:33;;;;;;;13.58;7.47;;;;;;;25.30;54.02;100863.23;1729957;80;21496;-68
2022/06/07 03:10:00;;;;;;;16.32;7.78;;;;;;;25.32;54.17;100859.45;1722946;82;21063;-67
2022/06/07 03:12:27;;;;;;;10.63;7.25;;;;;;;25.32;54.19;100862.58;1681704;84;21071;-68
2022/06/07 03:14:55;;;;;;;13.80;7.37;;;;;;;25.34;54.16;100856.17;1697762;83;21061;-68
2022/06/07 03:17:24;;;;;;;14.75;7.95;;;;;;;25.71;53.74;100855.07;1698383;82;21496;-68
2022/06/07 03:19:52;;;;;;;13.22;7.67;;;;;;;25.91;53.45;100860.11;1695592;83;21075;-68
2022/06/07 03:22:20;;;;;;;16.20;8.20;;;;;;;25.51;54.24;100857.61;1678481;84;21048;-68
2022/06/07 03:24:49;;;;;;;14.87;8.08;;;;;;;25.64;54.29;100855.85;1692381;84;21103;-68
2022/06/07 03:27:17;;;;;;;18.75;8.50;;;;;;;25.84;54.05;100861.20;1702481;83;21028;-69
2022/06/07 03:29:45;;;;;;;14.87;8.20;;;;;;;25.91;53.95;100857.47;1664347;85;21501;-68
2022/06/07 03:32:15;;;;;;;15.55;8.80;;;;;;;26.15;53.61;100858.86;1675624;84;21088;-68
2022/06/07 03:34:43;;;;;;;13.08;8.48;;;;;;;26.38;53.40;100859.59;1688825;84;21100;-69
2022/06/07 03:37:10;;;;;;;15.65;8.75;;;;;;;26.62;52.75;100855.34;1667908;83;21571;-67
2022/06/07 03:39:39;;;;;;;15.85;9.03;;;;;;;26.56;52.56;100856.31;1673068;84;21135;-67
2022/06/07 03:42:07;;;;;;;18.75;9.43;;;;;;;26.62;52.77;100856.66;1673325;84;21098;-67
2022/06/07 03:44:35;;;;;;;15.70;9.00;;;;;;;26.74;52.67;100854.02;1656045;84;21549;-69
2022/06/07 03:47:04;;;;;;;16.95;8.80;;;;;;;26.96;52.14;100855.17;1682433;85;21081;-67
2022/06/07 03:49:31;;;;;;;15.70;9.30;;;;;;;27.09;52.04;100859.47;1671467;84;21536;-67
2022/06/07 03:52:01;;;;;;;16.67;9.95;;;;;;;27.29;51.72;100861.77;1692128;83;21511;-67
2022/06/07 03:54:30;;;;;;;18.32;9.98;;;;;;;27.34;51.71;100860.27;1704856;83;21075;-67
2022/06/07 03:56:57;;;;;;;16.70;8.45;;;;;;;27.54;51.67;100865.19;1687441;84;21091;-68
2022/06/07 03:59:29;;;;;;;12.63;7.78;;;;;;;27.62;51.45;100865.16;1675054;84;21591;-68
2022/06/07 04:01:56;;;;;;;13.98;7.62;;;;;;;27.70;51.23;100867.77;1688550;84;21086;-68
2022/06/07 04:04:24;;;;;;;15.05;7.70;;;;;;;27.89;50.73;100869.20;1688938;84;21530;-68
2022/06/07 04:09:40;;;;;;;16.60;8.25;;;;;;;28.12;50.24;100871.07;1670693;84;21069;-68
2022/06/07 04:12:13;;;;;;;14.05;7.50;;;;;;;28.30;49.79;100867.66;1670615;85;21033;-69
2022/06/07 04:14:44;;;;;;;12.47;7.15;;;;;;;28.58;49.90;100876.95;1688913;84;21569;-68
2022/06/07 04:17:13;;;;;;;14.28;7.92;;;;;;;28.70;49.49;100875.53;1707942;83;21087;-68
2022/06/07 04:19:43;;;;;;;12.40;7.00;;;;;;;28.74;49.15;100867.05;1700595;83;21504;-69
2022/06/07 04:22:11;;;;;;;12.90;7.12;;;;;;;29.00;49.16;100869.00;1694075;83;21028;-68
2022/06/07 04:24:40;;;;;;;13.83;7.67;;;;;;;29.10;49.34;100871.70;1679923;84;21060;-68
2022/06/07 04:27:08;;;;;;;12.55;7.65;;;;;;;29.34;49.17;100873.32;1690924;84;21091;-68
2022/06/07 04:29:38;;;;;;;13.15;7.53;;;;;;;29.45;49.12;100879.17;1693154;84;21032;-68
2022/06/07 04:32:07;;;;;;;10.03;6.85;;;;;;;29.60;48.92;100881.30;1695566;83;21602;-68
2022/06/07 04:34:35;;;;;;;12.33;7.85;;;;;;;29.73;49.03;100879.38;1692158;83;21562;-70
2022/06/07 04:37:05;;;;;;;14.23;6.37;;;;;;;29.80;48.85;100882.11;1719929;83;21032;-68
2022/06/07 04:39:32;;;;;;;10.85;6.22;;;;;;;29.86;47.85;100880.04;1689204;83;21040;-68
2022/06/07 04:42:05;;;;;;;19.87;6.70;;;;;;;29.80;48.43;100880.78;1701969;83;21517;-68
2022/06/07 04:44:33;;;;;;;14.87;6.70;;;;;;;29.98;48.24;100883.86;1679074;84;21075;-68
2022/06/07 04:47:01;;;;;;;13.25;6.70;;;;;;;30.27;46.81;100886.12;1705449;83;21021;-68
2022/06/07 04:49:30;;;;;;;9.28;6.30;;;;;;;30.49;45.40;100883.00;1686113;84;21556;-68
2022/06/07 04:51:57;;;;;;;13.55;6.62;;;;;;;30.61;45.29;100888.64;1677269;84;21044;-69
2022/06/07 04:54:36;;;;;;;13.32;6.45;;;;;;;30.34;45.22;100888.39;1704946;83;21103;-70
2022/06/07 04:57:04;;;;;;;10.90;6.72;;;;;;;30.42;45.33;100884.28;1698594;83;21097;-69
2022/06/07 04:59:31;;;;;;;10.48;6.05;;;;;;;30.37;45.47;100887.17;1682551;85;21036;-68
2022/06/07 05:02:00;;;;;;;11.38;6.15;;;;;;;30.63;45.04;100890.60;1676819;84;21012;-67
2022/06/07 05:04:29;;;;;;;12.80;6.70;;;;;;;30.89;44.39;100896.17;1682679;84;21106;-68
2022/06/07 05:06:58;;;;;;;12.10;6.08;;;;;;;31.10;44.41;100896.66;1683084;84;21134;-70
2022/06/07 05:09:33;;;;;;;12.13;5.85;;;;;;;31.16;43.75;100896.38;1684241;83;21079;-68
2022/06/07 05:12:05;;;;;;;13.95;6.25;;;;;;;31.31;43.72;100891.78;1682469;84;21075;-67
2022/06/07 05:14:36;;;;;;;10.93;6.28;;;;;;;31.33;43.16;100900.39;1689397;84;21001;-69
2022/06/07 05:17:03;;;;;;;9.40;6.28;;;;;;;31.52;42.86;100902.88;1687519;84;21039;-69
2022/06/07 05:19:33;;;;;;;9.65;5.85;;;;;;;31.64;43.10;100903.15;1690237;84;21083;-68
2022/06/07 05:22:03;;;;;;;9.33;5.70;;;;;;;31.88;43.01;100905.01;1701749;82;21012;-68
2022/06/07 05:24:32;;;;;;;8.85;5.60;;;;;;;32.09;42.58;100900.90;1723641;82;21619;-69
2022/06/07 05:27:03;;;;;;;8.15;5.70;;;;;;;32.04;41.96;100906.02;1726809;82;21063;-69
2022/06/07 05:29:55;;;;;;;11.33;6.20;;;;;;;32.00;42.85;100906.11;1683546;84;21150;-69
2022/06/07 05:32:27;;;;;;;13.50;6.17;;;;;;;31.97;42.60;100917.11;1700876;83;21570;-68
2022/06/07 05:34:55;;;;;;;10.00;5.95;;;;;;;32.28;42.72;100909.98;1688181;83;21490;-69
2022/06/07 05:37:23;;;;;;;12.53;6.00;;;;;;;32.32;41.88;100907.72;1696595;83;21068;-68
2022/06/07 05:39:52;;;;;;;11.28;5.80;;;;;;;32.26;42.66;100913.36;1710584;82;21024;-70
2022/06/07 05:42:19;;;;;;;11.97;5.95;;;;;;;32.25;41.71;100909.56;1695104;83;21063;-70
2022/06/07 05:44:48;;;;;;;12.63;6.20;;;;;;;32.26;41.98;100912.52;1694746;83;21039;-71
2022/06/07 05:47:15;;;;;;;11.60;5.67;;;;;;;32.80;41.36;100907.61;1691274;83;21138;-68
2022/06/07 05:49:47;;;;;;;9.20;5.65;;;;;;;32.78;42.42;100910.19;1732333;82;21086;-69
2022/06/07 05:52:17;;;;;;;7.78;5.90;;;;;;;32.84;41.73;100908.84;1707968;82;21019;-70
2022/06/07 05:54:46;;;;;;;11.45;5.55;;;;;;;32.85;41.70;100914.50;1730749;82;21052;-69
2022/06/07 05:57:13;;;;;;;8.83;5.70;;;;;;;32.91;41.74;100918.20;1727443;82;21490;-73
2022/06/07 05:59:41;;;;;;;9.80;5.67;;;;;;;33.12;40.73;100920.66;1705350;83;21040;-69
2022/06/07 06:28:51;;;;;;;9.55;4.15;;;;;;;32.76;44.56;100911.72;1777674;81;23009;-67
2022/06/07 06:31:19;;;;;;;10.03;4.42;;;;;;;33.09;43.26;100911.75;1752869;81;21071;-68
2022/06/07 06:33:51;;;;;;;5.22;3.12;;;;;;;33.09;43.60;100909.09;1752817;82;21000;-68
2022/06/07 06:36:24;;;;;;;5.77;3.60;;;;;;;33.02;41.43;100912.23;1751860;82;21008;-68
2022/06/07 06:38:52;;;;;;;6.37;3.77;;;;;;;32.93;40.98;100910.30;1732835;83;21068;-70
2022/06/07 06:41:24;;;;;;;10.38;4.58;;;;;;;33.06;40.45;100916.13;1736659;81;21077;-69
2022/06/07 06:43:53;;;;;;;9.33;4.45;;;;;;;32.30;43.61;100911.09;1711637;82;21561;-69
2022/06/07 06:46:29;;;;;;;6.15;3.77;;;;;;;32.25;44.56;100916.22;1755525;80;20959;-71
2022/06/07 06:48:57;;;;;;;6.50;3.67;;;;;;;32.33;41.95;100909.38;1722242;81;21494;-69
2022/06/07 06:51:27;;;;;;;14.58;4.80;;;;;;;32.18;40.85;100909.55;1771685;80;20947;-69
2022/06/07 06:53:58;;;;;;;9.03;4.28;;;;;;;32.06;43.57;100916.48;1753117;80;21041;-69
2022/06/07 06:56:29;;;;;;;8.07;4.60;;;;;;;32.34;42.59;100917.66;1738491;81;21502;-69
2022/06/07 06:58:58;;;;;;;7.70;4.20;;;;;;;32.68;42.60;100914.58;1743736;80;21007;-70
2022/06/07 07:01:34;;;;;;;6.15;4.10;;;;;;;32.17;42.60;100909.74;1739855;80;21037;-70
2022/06/07 07:04:04;;;;;;;8.03;4.20;;;;;;;32.42;42.25;100910.84;1757434;80;20990;-69
2022/06/07 07:06:32;;;;;;;7.30;3.70;;;;;;;32.58;41.58;100910.16;1747140;80;20979;-69
2022/06/07 07:09:03;;;;;;;8.58;3.80;;;;;;;32.89;40.83;100906.40;1736152;81;20999;-69
2022/06/07 07:11:35;;;;;;;8.28;3.30;;;;;;;32.85;39.72;100905.69;1736981;82;21066;-69
2022/06/07 07:14:05;;;;;;;6.40;4.00;;;;;;;32.77;39.71;100912.04;1765670;81;21086;-71
2022/06/07 07:16:45;;;;;;;5.30;3.22;;;;;;;32.73;40.22;100905.47;1728379;82;21165;-69
2022/06/07 07:19:14;;;;;;;12.95;3.90;;;;;;;33.05;40.55;100910.50;1710652;83;21148;-70
2022/06/07 07:21:46;;;;;;;6.47;3.58;;;;;;;33.43;38.10;100921.03;1722106;82;20993;-69
2022/06/07 07:24:18;;;;;;;7.97;3.40;;;;;;;33.43;38.10;100921.03;1714772;83;21014;-69
2022/06/07 07:26:48;;;;;;;5.15;2.58;;;;;;;34.07;37.31;100920.22;1720074;83;21043;-69
2022/06/07 07:29:19;;;;;;;5.42;2.40;;;;;;;34.12;36.32;100919.57;1705363;83;21029;-70
2022/06/07 07:31:47;;;;;;;5.90;2.90;;;;;;;33.39;37.18;100911.28;1708127;83;21065;-70
2022/06/07 07:34:18;;;;;;;7.70;2.83;;;;;;;33.05;38.21;100921.16;1709840;82;21062;-71
2022/06/07 07:36:51;;;;;;;6.47;2.40;;;;;;;33.40;38.95;100914.79;1695264;83;21476;-69
2022/06/07 07:39:18;;;;;;;4.03;2.10;;;;;;;33.07;37.03;100921.78;1704165;83;21549;-70
2022/06/07 07:41:51;;;;;;;4.37;2.20;;;;;;;33.21;35.72;100915.92;1706934;83;21095;-73
2022/06/07 07:44:20;;;;;;;5.40;2.60;;;;;;;33.63;36.21;100905.80;1721216;83;21007;-69
2022/06/07 07:46:55;;;;;;;3.45;2.08;;;;;;;33.46;36.31;100904.61;1726582;83;21543;-69
2022/06/07 07:49:23;;;;;;;5.78;2.33;;;;;;;33.47;35.94;100910.23;1726865;83;21026;-70
2022/06/07 07:51:53;;;;;;;6.85;2.67;;;;;;;33.86;36.18;100912.49;1726762;83;21581;-69
2022/06/07 07:54:23;;;;;;;5.83;2.52;;;;;;;33.73;37.83;100907.52;1726609;83;21003;-69
2022/06/07 07:56:52;;;;;;;4.53;2.70;;;;;;;33.20;36.93;100913.48;1699424;83;21542;-70
2022/06/07 07:59:20;;;;;;;6.97;2.75;;;;;;;33.31;36.86;100907.50;1726498;83;21082;-71
2022/06/07 08:01:49;;;;;;;4.53;2.10;;;;;;;33.58;37.17;100911.44;1700686;83;21086;-70
2022/06/07 08:04:18;;;;;;;4.15;2.30;;;;;;;33.46;35.52;100903.28;1710029;83;22341;-71
2022/06/07 08:06:49;;;;;;;3.37;2.40;;;;;;;33.71;36.22;100911.44;1699684;84;21043;-69
2022/06/07 08:09:16;;;;;;;4.90;2.10;;;;;;;33.36;37.33;100905.04;1718143;83;21526;-69
2022/06/07 08:11:44;;;;;;;3.20;2.47;;;;;;;33.96;35.28;100899.50;1715472;83;21502;-71
2022/06/07 08:14:17;;;;;;;4.37;2.30;;;;;;;33.21;34.98;100906.59;1713693;83;21067;-69
2022/06/07 08:16:46;;;;;;;2.02;1.80;;;;;;;33.50;34.73;100901.83;1713772;83;21682;-69
2022/06/07 08:30:37;;;;;;;3.35;2.10;;;;;;;33.20;36.48;100894.81;1713805;83;21545;-70
2022/06/07 08:38:36;;;;;;;4.67;2.40;;;;;;;34.10;34.45;100890.39;1731490;83;21055;-69
2022/06/07 08:41:06;;;;;;;2.95;2.10;;;;;;;34.47;34.81;100891.11;1731522;83;21027;-71
2022/06/07 08:43:34;;;;;;;4.45;2.12;;;;;;;34.51;35.51;100879.80;1731194;83;21163;-70
2022/06/07 08:46:01;;;;;;;3.72;2.20;;;;;;;34.51;35.62;100871.77;1731623;83;21030;-69
2022/06/07 08:48:32;;;;;;;3.62;2.20;;;;;;;34.49;36.17;100867.66;1731328;83;21021;-68
2022/06/07 08:51:28;;;;;;;2.47;2.10;;;;;;;34.46;35.28;100876.12;1731244;83;21038;-69
2022/06/07 08:53:59;;;;;;;4.95;2.10;;;;;;;33.91;35.43;100879.31;1731079;83;21035;-69
2022/06/07 08:56:33;;;;;;;9.05;2.42;;;;;;;34.29;34.52;100878.52;1731816;83;21050;-69
2022/06/07 08:59:15;;;;;;;5.30;2.05;;;;;;;33.66;34.75;100880.53;1731496;83;21043;-69
2022/06/07 09:02:05;;;;;;;3.62;2.00;;;;;;;34.36;35.29;100872.59;1731754;83;21031;-69
2022/06/07 09:04:36;;;;;;;3.60;1.92;;;;;;;34.71;35.39;100862.29;1730992;82;21135;-72
2022/06/07 09:07:11;;;;;;;2.60;1.60;;;;;;;33.98;34.89;100874.73;1750188;82;21027;-70
2022/06/07 09:12:28;;;;;;;2.10;1.75;;;;;;;34.55;33.79;100864.64;1752328;82;21035;-69
2022/06/07 09:15:12;;;;;;;2.90;2.00;;;;;;;35.33;35.59;100857.48;1752486;82;21041;-69
2022/06/07 09:17:47;;;;;;;;;;;;;;;35.52;34.89;100864.97;1754911;82;21055;-69
2022/06/07 09:20:19;;;;;;;3.87;2.00;;;;;;;34.71;33.59;100863.63;1752157;82;20099;-70
2022/06/07 09:22:55;;;;;;;6.85;2.30;;;;;;;34.98;33.87;100851.84;1752322;82;21012;-68
2022/06/07 09:25:40;;;;;;;3.77;2.00;;;;;;;35.17;33.42;100854.88;1752142;82;21102;-68
2022/06/07 09:28:12;;;;;;;2.72;1.80;;;;;;;35.27;34.39;100850.34;1749633;82;21601;-68
2022/06/07 09:30:44;;;;;;;3.98;1.90;;;;;;;35.35;33.57;100855.40;1723552;82;21051;-68
2022/06/07 09:33:31;;;;;;;5.60;2.00;;;;;;;34.46;32.72;100858.75;1723745;82;21027;-69
2022/06/07 09:36:16;;;;;;;3.72;1.75;;;;;;;34.10;34.23;100860.19;1719717;83;21075;-69
2022/06/07 09:38:53;;;;;;;2.75;2.00;;;;;;;34.28;33.76;100854.15;1713430;83;21001;-69
2022/06/07 09:41:38;;;;;;;6.75;2.00;;;;;;;34.54;33.73;100849.12;1718039;83;21056;-69
2022/06/07 09:44:38;;;;;;;4.50;1.80;;;;;;;34.91;33.85;100843.89;1690776;83;21075;-70
2022/06/07 09:47:15;;;;;;;9.15;2.02;;;;;;;35.05;33.70;100844.05;1708340;84;21626;-70
2022/06/07 09:49:58;;;;;;;4.30;1.50;;;;;;;35.45;33.21;100846.31;1708204;84;21072;-69
2022/06/07 09:52:31;;;;;;;2.67;1.80;;;;;;;35.49;32.51;100838.13;1708200;84;21040;-69
2022/06/07 09:55:22;;;;;;;7.58;1.90;;;;;;;35.38;33.01;100844.75;1708443;84;21515;-70
2022/06/07 09:58:06;;;;;;;2.12;1.67;;;;;;;34.96;33.20;100845.39;1707949;84;21016;-69
2022/06/07 10:01:04;;;;;;;6.20;1.70;;;;;;;34.98;34.02;100839.80;1708234;84;21032;-70
2022/06/07 10:03:59;;;;;;;2.37;2.10;;;;;;;34.92;33.60;100845.54;1708213;84;21180;-67
2022/06/07 10:06:33;;;;;;;5.67;2.00;;;;;;;34.55;32.32;100847.27;1708211;83;21039;-67
2022/06/07 10:09:24;;;;;;;4.42;2.12;;;;;;;34.87;32.37;100844.84;1708225;84;21051;-69
2022/06/07 10:12:08;;;;;;;2.67;1.90;;;;;;;35.08;32.63;100841.47;1708384;83;21000;-69
2022/06/07 10:14:43;;;;;;;4.58;1.90;;;;;;;34.53;33.56;100843.46;1710721;84;21084;-69
2022/06/07 10:17:52;;;;;;;4.87;1.82;;;;;;;34.81;33.52;100843.05;1712606;84;21040;-69
2022/06/07 10:20:34;;;;;;;4.08;1.90;;;;;;;35.13;33.01;100849.63;1673656;85;21544;-69
2022/06/07 10:23:31;;;;;;;3.83;1.90;;;;;;;35.29;32.45;100846.40;1689752;84;21095;-68
2022/06/07 10:26:10;;;;;;;3.77;1.80;;;;;;;35.35;32.84;100843.88;1690004;85;21099;-69
2022/06/07 10:28:48;;;;;;;6.15;2.00;;;;;;;35.27;33.43;100838.30;1689761;85;21047;-68
2022/06/07 10:31:39;;;;;;;4.50;2.12;;;;;;;34.91;33.23;100838.53;1672824;84;21496;-69
2022/06/07 10:34:24;;;;;;;3.92;1.80;;;;;;;34.89;34.06;100848.11;1673464;86;21046;-69
2022/06/07 10:37:17;;;;;;;3.87;1.72;;;;;;;35.43;33.76;100840.91;1673330;86;21552;-69
2022/06/07 10:40:02;;;;;;;3.52;1.80;;;;;;;35.54;32.68;100833.97;1669436;86;21515;-69
2022/06/07 10:42:41;;;;;;;5.95;2.10;;;;;;;35.88;33.28;100831.17;1673102;86;21111;-70
2022/06/07 10:45:19;;;;;;;2.52;1.98;;;;;;;35.47;32.03;100828.17;1673071;86;21056;-69
2022/06/07 10:48:14;;;;;;;5.15;2.00;;;;;;;35.10;32.66;100824.15;1673443;86;21096;-69
2022/06/07 10:51:06;;;;;;;5.33;2.40;;;;;;;35.26;32.56;100822.77;1673362;86;21041;-69
2022/06/07 10:53:41;;;;;;;4.28;2.02;;;;;;;35.41;32.97;100818.89;1673220;86;21045;-71
2022/06/07 10:56:25;;;;;;;3.80;2.00;;;;;;;35.50;33.70;100817.52;1673497;86;21029;-69
2022/06/07 10:58:57;;;;;;;2.47;1.80;;;;;;;36.26;33.04;100814.75;1672425;86;21040;-69
2022/06/07 11:01:40;;;;;;;4.80;1.75;;;;;;;35.88;32.86;100809.21;1673293;86;21044;-68
2022/06/07 11:10:17;;;;;;;3.83;1.90;;;;;;;35.41;33.07;100814.34;1673678;86;21052;-70
2022/06/07 11:13:16;;;;;;;3.50;1.80;;;;;;;35.16;32.50;100806.42;1672864;86;21519;-70
2022/06/07 11:15:59;;;;;;;3.85;1.60;;;;;;;35.62;31.98;100805.53;1673010;86;21152;-70
2022/06/07 11:18:28;;;;;;;3.50;1.70;;;;;;;36.00;32.10;100803.89;1673153;84;21123;-70
2022/06/07 11:21:06;;;;;;;4.90;1.72;;;;;;;36.17;32.30;100802.72;1651808;86;21144;-70
2022/06/07 11:23:47;;;;;;;2.90;1.60;;;;;;;36.07;32.05;100809.14;1670835;85;21520;-71
2022/06/07 11:26:19;;;;;;;7.10;1.80;;;;;;;36.38;31.93;100799.22;1673403;85;21591;-68
2022/06/07 11:28:49;;;;;;;3.77;1.70;;;;;;;36.34;32.43;100796.71;1673348;86;21104;-70
2022/06/07 11:31:36;;;;;;;4.00;1.62;;;;;;;36.64;31.80;100796.11;1675592;85;21116;-69
2022/06/07 11:34:14;;;;;;;2.65;1.52;;;;;;;36.84;31.58;100789.03;1673690;86;21036;-68
2022/06/07 11:36:43;;;;;;;2.70;1.45;;;;;;;36.21;31.36;100785.66;1673689;86;21096;-70
2022/06/07 11:39:25;;;;;;;3.95;1.80;;;;;;;36.36;32.23;100791.94;1673556;86;21037;-69
2022/06/07 11:41:55;;;;;;;3.08;1.65;;;;;;;35.99;31.78;100790.22;1673503;86;21083;-69
2022/06/07 11:44:36;;;;;;;3.62;1.52;;;;;;;36.06;31.03;100788.23;1652578;86;21064;-70
2022/06/07 11:47:11;;;;;;;2.08;1.67;;;;;;;36.67;31.48;100777.38;1673400;85;21068;-69
2022/06/07 11:49:46;;;;;;;1.98;1.77;;;;;;;36.71;32.47;100773.17;1673808;86;21037;-69
2022/06/07 11:52:33;;;;;;;4.12;1.65;;;;;;;35.96;31.22;100782.62;1673924;86;21563;-70
2022/06/07 11:55:16;;;;;;;2.37;1.60;;;;;;;36.02;31.61;100772.85;1673593;86;21097;-69
2022/06/07 11:58:02;;;;;;;7.75;1.82;;;;;;;36.54;31.04;100769.53;1675751;84;21064;-69
2022/06/07 12:21:11;;;;;;;2.25;1.60;;;;;;;35.02;34.49;100744.18;1775123;80;21206;-72
2022/06/07 12:23:42;;;;;;;4.35;1.90;;;;;;;35.54;32.31;100746.41;1761448;80;21034;-73
2022/06/07 12:26:34;;;;;;;3.40;1.85;;;;;;;36.02;31.55;100743.38;1757133;80;21043;-72
2022/06/07 12:29:18;;;;;;;3.27;1.57;;;;;;;36.49;31.82;100742.89;1770242;80;21693;-72
2022/06/07 12:31:51;;;;;;;3.05;1.57;;;;;;;36.42;31.11;100746.23;1768215;80;21042;-72
2022/06/07 12:34:34;;;;;;;2.77;1.40;;;;;;;36.56;30.64;100739.27;1769917;80;21043;-72
2022/06/07 12:37:13;;;;;;;2.95;1.55;;;;;;;36.71;30.61;100735.63;1782955;80;21098;-71
2022/06/07 12:40:00;;;;;;;2.62;1.52;;;;;;;36.36;31.07;100744.48;1768313;80;21023;-72
2022/06/07 12:42:35;;;;;;;2.83;1.55;;;;;;;35.23;31.71;100744.78;1754439;81;21105;-72
2022/06/07 12:45:23;;;;;;;2.58;1.52;;;;;;;35.07;32.08;100741.64;1768411;80;21536;-72
2022/06/07 12:48:02;;;;;;;2.37;1.67;;;;;;;36.02;30.41;100737.48;1738622;81;21043;-72
2022/06/07 12:50:34;;;;;;;5.75;1.85;;;;;;;36.98;31.31;100730.53;1760782;80;21047;-72
2022/06/07 12:53:01;;;;;;;1.95;1.50;;;;;;;37.13;31.22;100729.23;1761490;80;21055;-72
2022/06/07 12:55:36;;;;;;;2.77;1.65;;;;;;;37.10;31.27;100726.48;1775967;80;21121;-71
2022/06/07 12:58:17;;;;;;;4.30;2.10;;;;;;;36.29;31.52;100727.16;1766429;80;21068;-71
2022/06/07 13:00:47;;;;;;;2.95;1.50;;;;;;;35.89;31.71;100733.70;1767678;79;21042;-72
2022/06/07 13:03:32;;;;;;;2.30;1.40;;;;;;;36.01;31.27;100728.33;1763552;80;21071;-72
2022/06/07 13:06:08;;;;;;;4.40;1.80;;;;;;;36.01;30.67;100729.67;1765344;80;21020;-72
2022/06/07 13:08:39;;;;;;;3.08;1.90;;;;;;;36.40;31.15;100734.12;1784855;80;21035;-73
2022/06/07 13:11:13;;;;;;;2.67;1.60;;;;;;;36.89;30.71;100719.91;1763147;80;21054;-72
2022/06/07 13:13:47;;;;;;;7.65;1.90;;;;;;;37.24;29.64;100725.17;1763896;80;21027;-72
2022/06/07 13:16:30;;;;;;;5.85;1.95;;;;;;;37.15;29.77;100725.28;1741908;80;21561;-73